sensor_id;sensor_type;location;lat;lon;timestamp;P1;durP1;ratioP1;P2;durP2;ratioP2
2934;SDS011;2462;51.456;7.248;2022-12-26T00:01:28;3.17;;;2.17;;
2934;SDS011;2462;51.456;7.248;2022-12-26T00:03:55;2.40;;;2.20;;
2934;SDS011;2462;51.456;7.248;2022-12-26T00:06:22;3.00;;;2.67;;
2934;SDS011;2462;51.456;7.248;2022-12-26T00:08:49;3.50;;;2.47;;
2934;SDS011;2462;51.456;7.248;2022-12-26T00:11:16;2.93;;;2.50;;
2934;SDS011;2462;51.456;7.248;2022-12-26T00:13:42;4.90;;;2.90;;
2934;SDS011;2462;51.456;7.248;2022-12-26T00:16:12;4.70;;;2.57;;
2934;SDS011;2462;51.456;7.248;2022-12-26T00:18:39;3.10;;;2.80;;
2934;SDS011;2462;51.456;7.248;2022-12-26T00:21:06;5.23;;;2.73;;
2934;SDS011;2462;51.456;7.248;2022-12-26T00:23:33;4.73;;;2.80;;
2934;SDS011;2462;51.456;7.248;2022-12-26T00:26:03;3.17;;;2.60;;
2934;SDS011;2462;51.456;7.248;2022-12-26T00:28:33;3.83;;;3.23;;
2934;SDS011;2462;51.456;7.248;2022-12-26T00:31:03;7.30;;;3.83;;
2934;SDS011;2462;51.456;7.248;2022-12-26T00:33:44;4.23;;;3.83;;
2934;SDS011;2462;51.456;7.248;2022-12-26T00:36:11;3.87;;;3.37;;
2934;SDS011;2462;51.456;7.248;2022-12-26T00:38:38;4.80;;;4.13;;
2934;SDS011;2462;51.456;7.248;2022-12-26T00:41:06;4.20;;;3.80;;
2934;SDS011;2462;51.456;7.248;2022-12-26T00:43:32;6.97;;;4.07;;
2934;SDS011;2462;51.456;7.248;2022-12-26T00:45:58;4.90;;;4.17;;
2934;SDS011;2462;51.456;7.248;2022-12-26T00:48:24;5.90;;;4.60;;
2934;SDS011;2462;51.456;7.248;2022-12-26T00:50:50;7.37;;;5.83;;
2934;SDS011;2462;51.456;7.248;2022-12-26T00:53:16;11.23;;;6.60;;
2934;SDS011;2462;51.456;7.248;2022-12-26T00:55:41;6.57;;;4.90;;
2934;SDS011;2462;51.456;7.248;2022-12-26T00:58:07;5.90;;;5.00;;
2934;SDS011;2462;51.456;7.248;2022-12-26T01:00:33;8.13;;;6.00;;
2934;SDS011;2462;51.456;7.248;2022-12-26T01:02:59;6.23;;;5.07;;
2934;SDS011;2462;51.456;7.248;2022-12-26T01:05:25;6.83;;;5.07;;
2934;SDS011;2462;51.456;7.248;2022-12-26T01:07:50;12.13;;;4.33;;
2934;SDS011;2462;51.456;7.248;2022-12-26T01:10:16;6.60;;;4.57;;
2934;SDS011;2462;51.456;7.248;2022-12-26T01:12:42;6.77;;;4.53;;
2934;SDS011;2462;51.456;7.248;2022-12-26T01:15:08;9.87;;;4.23;;
2934;SDS011;2462;51.456;7.248;2022-12-26T01:17:34;5.87;;;4.03;;
2934;SDS011;2462;51.456;7.248;2022-12-26T01:20:00;7.57;;;4.13;;
2934;SDS011;2462;51.456;7.248;2022-12-26T01:22:27;4.50;;;3.40;;
2934;SDS011;2462;51.456;7.248;2022-12-26T01:24:53;6.00;;;3.63;;
2934;SDS011;2462;51.456;7.248;2022-12-26T01:27:19;4.27;;;3.60;;
2934;SDS011;2462;51.456;7.248;2022-12-26T01:29:45;6.93;;;4.37;;
2934;SDS011;2462;51.456;7.248;2022-12-26T01:32:10;6.03;;;4.03;;
2934;SDS011;2462;51.456;7.248;2022-12-26T01:34:36;5.17;;;3.67;;
2934;SDS011;2462;51.456;7.248;2022-12-26T01:37:01;9.80;;;4.57;;
2934;SDS011;2462;51.456;7.248;2022-12-26T01:39:27;8.20;;;4.97;;
2934;SDS011;2462;51.456;7.248;2022-12-26T01:41:52;6.30;;;4.70;;
2934;SDS011;2462;51.456;7.248;2022-12-26T01:47:22;5.60;;;4.47;;
2934;SDS011;2462;51.456;7.248;2022-12-26T01:49:51;6.53;;;3.50;;
2934;SDS011;2462;51.456;7.248;2022-12-26T01:52:29;4.90;;;3.10;;
2934;SDS011;2462;51.456;7.248;2022-12-26T01:54:57;3.00;;;2.70;;
2934;SDS011;2462;51.456;7.248;2022-12-26T01:57:26;3.10;;;2.50;;
2934;SDS011;2462;51.456;7.248;2022-12-26T01:59:55;3.73;;;2.70;;
2934;SDS011;2462;51.456;7.248;2022-12-26T02:02:22;2.60;;;2.40;;
2934;SDS011;2462;51.456;7.248;2022-12-26T02:04:51;2.70;;;2.50;;
2934;SDS011;2462;51.456;7.248;2022-12-26T02:07:36;2.30;;;2.10;;
2934;SDS011;2462;51.456;7.248;2022-12-26T02:10:05;3.13;;;2.47;;
2934;SDS011;2462;51.456;7.248;2022-12-26T02:12:33;2.37;;;2.00;;
2934;SDS011;2462;51.456;7.248;2022-12-26T02:15:01;2.53;;;2.33;;
2934;SDS011;2462;51.456;7.248;2022-12-26T02:17:29;4.13;;;2.70;;
2934;SDS011;2462;51.456;7.248;2022-12-26T02:19:57;2.90;;;2.60;;
2934;SDS011;2462;51.456;7.248;2022-12-26T02:31:00;4.60;;;2.47;;
2934;SDS011;2462;51.456;7.248;2022-12-26T02:39:18;6.97;;;3.00;;
2934;SDS011;2462;51.456;7.248;2022-12-26T02:44:32;2.97;;;2.40;;
2934;SDS011;2462;51.456;7.248;2022-12-26T02:47:29;4.43;;;2.73;;
2934;SDS011;2462;51.456;7.248;2022-12-26T02:55:43;3.17;;;2.63;;
2934;SDS011;2462;51.456;7.248;2022-12-26T02:58:31;3.10;;;2.30;;
2934;SDS011;2462;51.456;7.248;2022-12-26T03:01:26;2.77;;;2.57;;
2934;SDS011;2462;51.456;7.248;2022-12-26T03:04:16;3.50;;;2.63;;
2934;SDS011;2462;51.456;7.248;2022-12-26T03:07:17;3.07;;;2.77;;
2934;SDS011;2462;51.456;7.248;2022-12-26T03:10:05;3.60;;;2.00;;
2934;SDS011;2462;51.456;7.248;2022-12-26T03:13:00;3.00;;;2.70;;
2934;SDS011;2462;51.456;7.248;2022-12-26T03:18:37;2.67;;;2.20;;
2934;SDS011;2462;51.456;7.248;2022-12-26T03:21:07;3.00;;;2.70;;
2934;SDS011;2462;51.456;7.248;2022-12-26T03:23:34;3.97;;;3.27;;
2934;SDS011;2462;51.456;7.248;2022-12-26T03:26:06;3.70;;;3.20;;
2934;SDS011;2462;51.456;7.248;2022-12-26T03:28:54;3.30;;;3.00;;
2934;SDS011;2462;51.456;7.248;2022-12-26T03:31:40;3.70;;;3.00;;
2934;SDS011;2462;51.456;7.248;2022-12-26T03:34:06;2.80;;;2.60;;
2934;SDS011;2462;51.456;7.248;2022-12-26T03:48:39;3.50;;;3.00;;
2934;SDS011;2462;51.456;7.248;2022-12-26T03:51:32;4.10;;;3.70;;
2934;SDS011;2462;51.456;7.248;2022-12-26T03:58:05;4.70;;;4.30;;
2934;SDS011;2462;51.456;7.248;2022-12-26T04:00:52;4.77;;;4.37;;
2934;SDS011;2462;51.456;7.248;2022-12-26T04:03:38;6.67;;;4.70;;
2934;SDS011;2462;51.456;7.248;2022-12-26T04:06:25;4.93;;;4.40;;
2934;SDS011;2462;51.456;7.248;2022-12-26T04:09:19;5.43;;;4.90;;
2934;SDS011;2462;51.456;7.248;2022-12-26T04:12:09;6.23;;;5.20;;
2934;SDS011;2462;51.456;7.248;2022-12-26T04:15:02;5.73;;;4.80;;
2934;SDS011;2462;51.456;7.248;2022-12-26T04:17:58;6.17;;;4.60;;
2934;SDS011;2462;51.456;7.248;2022-12-26T04:20:50;5.47;;;4.20;;
2934;SDS011;2462;51.456;7.248;2022-12-26T04:23:33;4.30;;;3.90;;
2934;SDS011;2462;51.456;7.248;2022-12-26T04:26:33;3.67;;;3.37;;
2934;SDS011;2462;51.456;7.248;2022-12-26T04:29:22;3.80;;;3.50;;
2934;SDS011;2462;51.456;7.248;2022-12-26T04:32:12;4.40;;;4.00;;
2934;SDS011;2462;51.456;7.248;2022-12-26T04:35:17;4.00;;;3.60;;
2934;SDS011;2462;51.456;7.248;2022-12-26T04:38:07;5.90;;;5.07;;
2934;SDS011;2462;51.456;7.248;2022-12-26T04:40:54;4.90;;;4.50;;
2934;SDS011;2462;51.456;7.248;2022-12-26T04:43:41;6.30;;;4.50;;
2934;SDS011;2462;51.456;7.248;2022-12-26T04:46:28;3.80;;;3.40;;
2934;SDS011;2462;51.456;7.248;2022-12-26T04:48:55;4.03;;;3.63;;
2934;SDS011;2462;51.456;7.248;2022-12-26T04:51:40;4.80;;;3.80;;
2934;SDS011;2462;51.456;7.248;2022-12-26T04:54:06;4.70;;;3.67;;
2934;SDS011;2462;51.456;7.248;2022-12-26T04:56:32;8.57;;;3.67;;
2934;SDS011;2462;51.456;7.248;2022-12-26T04:58:57;3.60;;;2.93;;
2934;SDS011;2462;51.456;7.248;2022-12-26T05:01:23;4.60;;;3.93;;
2934;SDS011;2462;51.456;7.248;2022-12-26T05:04:11;4.40;;;3.57;;
2934;SDS011;2462;51.456;7.248;2022-12-26T05:06:59;4.40;;;3.93;;
2934;SDS011;2462;51.456;7.248;2022-12-26T05:09:47;3.77;;;3.40;;
2934;SDS011;2462;51.456;7.248;2022-12-26T05:12:15;4.10;;;3.60;;
2934;SDS011;2462;51.456;7.248;2022-12-26T05:14:41;4.70;;;3.70;;
2934;SDS011;2462;51.456;7.248;2022-12-26T05:17:06;3.77;;;3.43;;
2934;SDS011;2462;51.456;7.248;2022-12-26T05:19:51;4.60;;;4.03;;
2934;SDS011;2462;51.456;7.248;2022-12-26T05:22:36;4.27;;;3.87;;
2934;SDS011;2462;51.456;7.248;2022-12-26T05:25:24;5.83;;;3.77;;
2934;SDS011;2462;51.456;7.248;2022-12-26T05:28:11;4.70;;;3.70;;
2934;SDS011;2462;51.456;7.248;2022-12-26T05:30:56;4.30;;;3.60;;
2934;SDS011;2462;51.456;7.248;2022-12-26T05:33:21;4.30;;;3.87;;
2934;SDS011;2462;51.456;7.248;2022-12-26T05:36:06;4.13;;;3.70;;
2934;SDS011;2462;51.456;7.248;2022-12-26T05:38:32;4.70;;;3.57;;
2934;SDS011;2462;51.456;7.248;2022-12-26T05:40:58;4.03;;;3.63;;
2934;SDS011;2462;51.456;7.248;2022-12-26T05:43:23;3.57;;;3.27;;
2934;SDS011;2462;51.456;7.248;2022-12-26T05:45:49;3.40;;;3.10;;
2934;SDS011;2462;51.456;7.248;2022-12-26T05:48:14;4.17;;;3.30;;
2934;SDS011;2462;51.456;7.248;2022-12-26T05:50:40;4.13;;;3.60;;
2934;SDS011;2462;51.456;7.248;2022-12-26T05:53:06;4.00;;;3.30;;
2934;SDS011;2462;51.456;7.248;2022-12-26T05:55:31;3.60;;;3.30;;
2934;SDS011;2462;51.456;7.248;2022-12-26T05:57:58;10.50;;;3.20;;
2934;SDS011;2462;51.456;7.248;2022-12-26T06:00:23;4.03;;;3.57;;
2934;SDS011;2462;51.456;7.248;2022-12-26T06:02:49;4.47;;;3.57;;
2934;SDS011;2462;51.456;7.248;2022-12-26T06:05:14;4.73;;;2.83;;
2934;SDS011;2462;51.456;7.248;2022-12-26T06:07:40;4.73;;;3.67;;
2934;SDS011;2462;51.456;7.248;2022-12-26T06:10:06;4.50;;;3.63;;
2934;SDS011;2462;51.456;7.248;2022-12-26T06:12:32;4.97;;;3.73;;
2934;SDS011;2462;51.456;7.248;2022-12-26T06:14:58;5.33;;;3.33;;
2934;SDS011;2462;51.456;7.248;2022-12-26T06:17:24;4.27;;;3.60;;
2934;SDS011;2462;51.456;7.248;2022-12-26T06:19:49;4.30;;;3.37;;
2934;SDS011;2462;51.456;7.248;2022-12-26T06:22:15;3.87;;;3.50;;
2934;SDS011;2462;51.456;7.248;2022-12-26T06:24:40;4.20;;;3.07;;
2934;SDS011;2462;51.456;7.248;2022-12-26T06:27:06;4.37;;;3.70;;
2934;SDS011;2462;51.456;7.248;2022-12-26T06:29:31;4.33;;;3.70;;
2934;SDS011;2462;51.456;7.248;2022-12-26T06:31:57;7.50;;;4.07;;
2934;SDS011;2462;51.456;7.248;2022-12-26T06:34:22;7.10;;;4.07;;
2934;SDS011;2462;51.456;7.248;2022-12-26T06:36:48;6.03;;;4.03;;
2934;SDS011;2462;51.456;7.248;2022-12-26T06:39:13;4.83;;;4.00;;
2934;SDS011;2462;51.456;7.248;2022-12-26T06:41:39;4.47;;;3.70;;
2934;SDS011;2462;51.456;7.248;2022-12-26T06:44:04;5.30;;;3.67;;
2934;SDS011;2462;51.456;7.248;2022-12-26T06:46:30;4.50;;;3.73;;
2934;SDS011;2462;51.456;7.248;2022-12-26T06:48:56;4.97;;;4.10;;
2934;SDS011;2462;51.456;7.248;2022-12-26T06:51:22;5.03;;;4.17;;
2934;SDS011;2462;51.456;7.248;2022-12-26T06:53:49;5.73;;;4.10;;
2934;SDS011;2462;51.456;7.248;2022-12-26T06:56:17;6.37;;;3.97;;
2934;SDS011;2462;51.456;7.248;2022-12-26T06:58:44;8.43;;;4.17;;
2934;SDS011;2462;51.456;7.248;2022-12-26T07:01:11;7.07;;;4.40;;
2934;SDS011;2462;51.456;7.248;2022-12-26T07:03:38;6.00;;;4.50;;
2934;SDS011;2462;51.456;7.248;2022-12-26T07:06:04;5.77;;;4.80;;
2934;SDS011;2462;51.456;7.248;2022-12-26T07:08:32;4.50;;;3.80;;
2934;SDS011;2462;51.456;7.248;2022-12-26T07:10:58;4.40;;;4.00;;
2934;SDS011;2462;51.456;7.248;2022-12-26T07:13:24;4.70;;;3.50;;
2934;SDS011;2462;51.456;7.248;2022-12-26T07:15:49;4.17;;;3.77;;
2934;SDS011;2462;51.456;7.248;2022-12-26T07:18:15;3.97;;;3.33;;
2934;SDS011;2462;51.456;7.248;2022-12-26T07:20:41;5.30;;;3.30;;
2934;SDS011;2462;51.456;7.248;2022-12-26T07:23:06;4.70;;;4.03;;
2934;SDS011;2462;51.456;7.248;2022-12-26T07:25:32;3.27;;;2.97;;
2934;SDS011;2462;51.456;7.248;2022-12-26T07:27:57;3.30;;;3.00;;
2934;SDS011;2462;51.456;7.248;2022-12-26T07:30:24;3.90;;;3.50;;
2934;SDS011;2462;51.456;7.248;2022-12-26T07:32:50;3.63;;;3.10;;
2934;SDS011;2462;51.456;7.248;2022-12-26T07:35:15;3.90;;;3.50;;
2934;SDS011;2462;51.456;7.248;2022-12-26T07:37:41;3.30;;;3.00;;
2934;SDS011;2462;51.456;7.248;2022-12-26T07:40:06;3.70;;;3.40;;
2934;SDS011;2462;51.456;7.248;2022-12-26T07:42:32;4.90;;;4.00;;
2934;SDS011;2462;51.456;7.248;2022-12-26T07:44:58;4.80;;;4.40;;
2934;SDS011;2462;51.456;7.248;2022-12-26T07:47:23;6.33;;;4.47;;
2934;SDS011;2462;51.456;7.248;2022-12-26T07:49:49;5.37;;;4.80;;
2934;SDS011;2462;51.456;7.248;2022-12-26T07:52:16;4.77;;;4.37;;
2934;SDS011;2462;51.456;7.248;2022-12-26T07:54:44;7.07;;;5.57;;
2934;SDS011;2462;51.456;7.248;2022-12-26T07:57:10;5.57;;;4.40;;
2934;SDS011;2462;51.456;7.248;2022-12-26T07:59:35;5.80;;;4.63;;
2934;SDS011;2462;51.456;7.248;2022-12-26T08:02:01;5.47;;;4.97;;
2934;SDS011;2462;51.456;7.248;2022-12-26T08:04:29;6.10;;;4.30;;
2934;SDS011;2462;51.456;7.248;2022-12-26T08:06:56;7.77;;;4.10;;
2934;SDS011;2462;51.456;7.248;2022-12-26T08:09:21;4.70;;;3.90;;
2934;SDS011;2462;51.456;7.248;2022-12-26T08:11:47;5.07;;;4.57;;
2934;SDS011;2462;51.456;7.248;2022-12-26T08:14:13;5.10;;;4.60;;
2934;SDS011;2462;51.456;7.248;2022-12-26T08:16:40;7.03;;;4.30;;
2934;SDS011;2462;51.456;7.248;2022-12-26T08:19:06;4.30;;;3.90;;
2934;SDS011;2462;51.456;7.248;2022-12-26T08:21:32;4.83;;;3.90;;
2934;SDS011;2462;51.456;7.248;2022-12-26T08:23:57;3.67;;;3.23;;
2934;SDS011;2462;51.456;7.248;2022-12-26T08:26:23;5.80;;;3.47;;
2934;SDS011;2462;51.456;7.248;2022-12-26T08:28:49;5.27;;;3.13;;
2934;SDS011;2462;51.456;7.248;2022-12-26T08:31:16;6.23;;;3.67;;
2934;SDS011;2462;51.456;7.248;2022-12-26T08:33:43;4.03;;;2.80;;
2934;SDS011;2462;51.456;7.248;2022-12-26T08:36:10;4.80;;;3.23;;
2934;SDS011;2462;51.456;7.248;2022-12-26T08:38:37;3.33;;;3.03;;
2934;SDS011;2462;51.456;7.248;2022-12-26T08:41:03;2.70;;;2.37;;
2934;SDS011;2462;51.456;7.248;2022-12-26T08:43:29;3.50;;;2.40;;
2934;SDS011;2462;51.456;7.248;2022-12-26T08:46:05;2.70;;;2.50;;
2934;SDS011;2462;51.456;7.248;2022-12-26T08:48:32;4.10;;;2.63;;
2934;SDS011;2462;51.456;7.248;2022-12-26T08:51:02;4.00;;;2.70;;
2934;SDS011;2462;51.456;7.248;2022-12-26T08:53:33;2.30;;;2.00;;
2934;SDS011;2462;51.456;7.248;2022-12-26T08:56:00;2.37;;;2.17;;
2934;SDS011;2462;51.456;7.248;2022-12-26T08:58:27;3.50;;;2.60;;
2934;SDS011;2462;51.456;7.248;2022-12-26T09:00:53;2.37;;;2.17;;
2934;SDS011;2462;51.456;7.248;2022-12-26T09:03:19;3.87;;;2.40;;
2934;SDS011;2462;51.456;7.248;2022-12-26T09:05:45;2.13;;;1.77;;
2934;SDS011;2462;51.456;7.248;2022-12-26T09:08:11;1.87;;;1.77;;
2934;SDS011;2462;51.456;7.248;2022-12-26T09:10:36;2.13;;;1.90;;
2934;SDS011;2462;51.456;7.248;2022-12-26T09:13:02;2.13;;;1.83;;
2934;SDS011;2462;51.456;7.248;2022-12-26T09:15:28;2.23;;;1.77;;
2934;SDS011;2462;51.456;7.248;2022-12-26T09:17:53;2.53;;;1.80;;
2934;SDS011;2462;51.456;7.248;2022-12-26T09:20:19;2.63;;;1.80;;
2934;SDS011;2462;51.456;7.248;2022-12-26T09:22:44;2.00;;;1.80;;
2934;SDS011;2462;51.456;7.248;2022-12-26T09:25:16;1.80;;;1.50;;
2934;SDS011;2462;51.456;7.248;2022-12-26T09:27:47;1.97;;;1.87;;
2934;SDS011;2462;51.456;7.248;2022-12-26T09:30:13;4.17;;;1.93;;
2934;SDS011;2462;51.456;7.248;2022-12-26T09:32:39;2.00;;;1.53;;
2934;SDS011;2462;51.456;7.248;2022-12-26T09:35:05;5.93;;;1.50;;
2934;SDS011;2462;51.456;7.248;2022-12-26T09:37:31;3.07;;;1.80;;
2934;SDS011;2462;51.456;7.248;2022-12-26T09:39:57;1.53;;;1.43;;
2934;SDS011;2462;51.456;7.248;2022-12-26T09:47:33;3.93;;;1.73;;
2934;SDS011;2462;51.456;7.248;2022-12-26T09:52:36;2.03;;;1.50;;
2934;SDS011;2462;51.456;7.248;2022-12-26T09:55:14;2.10;;;1.90;;
2934;SDS011;2462;51.456;7.248;2022-12-26T09:57:42;3.00;;;1.80;;
2934;SDS011;2462;51.456;7.248;2022-12-26T10:00:21;2.70;;;1.43;;
2934;SDS011;2462;51.456;7.248;2022-12-26T10:03:02;2.23;;;1.73;;
2934;SDS011;2462;51.456;7.248;2022-12-26T10:05:32;3.53;;;2.00;;
2934;SDS011;2462;51.456;7.248;2022-12-26T10:10:59;7.63;;;2.07;;
2934;SDS011;2462;51.456;7.248;2022-12-26T10:16:08;2.90;;;1.53;;
2934;SDS011;2462;51.456;7.248;2022-12-26T10:21:40;3.60;;;2.00;;
2934;SDS011;2462;51.456;7.248;2022-12-26T10:24:15;1.83;;;1.70;;
2934;SDS011;2462;51.456;7.248;2022-12-26T10:26:48;3.10;;;1.70;;
2934;SDS011;2462;51.456;7.248;2022-12-26T10:29:18;2.23;;;1.50;;
2934;SDS011;2462;51.456;7.248;2022-12-26T10:34:24;2.13;;;1.57;;
2934;SDS011;2462;51.456;7.248;2022-12-26T10:40:16;3.40;;;1.80;;
2934;SDS011;2462;51.456;7.248;2022-12-26T10:42:51;2.10;;;1.70;;
2934;SDS011;2462;51.456;7.248;2022-12-26T10:45:25;2.23;;;1.73;;
2934;SDS011;2462;51.456;7.248;2022-12-26T10:47:53;3.10;;;1.93;;
2934;SDS011;2462;51.456;7.248;2022-12-26T10:50:29;4.47;;;1.60;;
2934;SDS011;2462;51.456;7.248;2022-12-26T10:52:57;2.57;;;1.80;;
2934;SDS011;2462;51.456;7.248;2022-12-26T10:55:30;2.90;;;1.60;;
2934;SDS011;2462;51.456;7.248;2022-12-26T11:00:54;1.60;;;1.50;;
2934;SDS011;2462;51.456;7.248;2022-12-26T11:03:19;2.40;;;1.93;;
2934;SDS011;2462;51.456;7.248;2022-12-26T11:05:52;4.20;;;1.80;;
2934;SDS011;2462;51.456;7.248;2022-12-26T11:08:29;5.73;;;2.10;;
2934;SDS011;2462;51.456;7.248;2022-12-26T11:13:56;3.10;;;2.07;;
2934;SDS011;2462;51.456;7.248;2022-12-26T11:16:25;2.03;;;1.80;;
2934;SDS011;2462;51.456;7.248;2022-12-26T11:18:56;3.13;;;2.03;;
2934;SDS011;2462;51.456;7.248;2022-12-26T11:21:24;2.00;;;1.90;;
2934;SDS011;2462;51.456;7.248;2022-12-26T11:23:51;4.63;;;1.43;;
2934;SDS011;2462;51.456;7.248;2022-12-26T11:26:39;4.40;;;1.77;;
2934;SDS011;2462;51.456;7.248;2022-12-26T11:31:33;2.73;;;1.50;;
2934;SDS011;2462;51.456;7.248;2022-12-26T11:33:59;2.90;;;2.60;;
2934;SDS011;2462;51.456;7.248;2022-12-26T11:36:26;4.77;;;1.67;;
2934;SDS011;2462;51.456;7.248;2022-12-26T11:38:58;7.53;;;1.73;;
2934;SDS011;2462;51.456;7.248;2022-12-26T11:44:10;2.33;;;1.13;;
2934;SDS011;2462;51.456;7.248;2022-12-26T11:49:21;3.30;;;1.60;;
2934;SDS011;2462;51.456;7.248;2022-12-26T11:51:54;6.13;;;2.00;;
2934;SDS011;2462;51.456;7.248;2022-12-26T11:54:29;6.27;;;1.57;;
2934;SDS011;2462;51.456;7.248;2022-12-26T11:57:02;2.87;;;1.90;;
2934;SDS011;2462;51.456;7.248;2022-12-26T11:59:33;6.40;;;1.87;;
2934;SDS011;2462;51.456;7.248;2022-12-26T12:04:51;2.50;;;1.77;;
2934;SDS011;2462;51.456;7.248;2022-12-26T12:13:27;4.10;;;2.63;;
2934;SDS011;2462;51.456;7.248;2022-12-26T12:18:56;3.37;;;2.60;;
2934;SDS011;2462;51.456;7.248;2022-12-26T12:27:20;5.00;;;2.13;;
2934;SDS011;2462;51.456;7.248;2022-12-26T12:30:09;2.23;;;1.53;;
2934;SDS011;2462;51.456;7.248;2022-12-26T12:37:48;4.60;;;1.73;;
2934;SDS011;2462;51.456;7.248;2022-12-26T12:46:31;1.63;;;1.53;;
2934;SDS011;2462;51.456;7.248;2022-12-26T12:57:37;3.23;;;2.20;;
2934;SDS011;2462;51.456;7.248;2022-12-26T13:00:11;4.27;;;1.90;;
2934;SDS011;2462;51.456;7.248;2022-12-26T13:02:41;2.10;;;1.73;;
2934;SDS011;2462;51.456;7.248;2022-12-26T13:05:19;4.93;;;2.40;;
2934;SDS011;2462;51.456;7.248;2022-12-26T13:10:48;2.40;;;1.80;;
2934;SDS011;2462;51.456;7.248;2022-12-26T13:13:19;1.57;;;1.47;;
2934;SDS011;2462;51.456;7.248;2022-12-26T13:15:51;5.37;;;1.60;;
2934;SDS011;2462;51.456;7.248;2022-12-26T13:18:22;9.23;;;5.93;;
2934;SDS011;2462;51.456;7.248;2022-12-26T13:20:52;8.47;;;4.90;;
2934;SDS011;2462;51.456;7.248;2022-12-26T13:23:30;6.70;;;3.57;;
2934;SDS011;2462;51.456;7.248;2022-12-26T13:26:16;5.60;;;2.40;;
2934;SDS011;2462;51.456;7.248;2022-12-26T13:28:50;3.47;;;2.00;;
2934;SDS011;2462;51.456;7.248;2022-12-26T13:31:33;4.13;;;2.03;;
2934;SDS011;2462;51.456;7.248;2022-12-26T13:34:00;3.47;;;2.53;;
2934;SDS011;2462;51.456;7.248;2022-12-26T13:36:41;9.17;;;2.40;;
2934;SDS011;2462;51.456;7.248;2022-12-26T13:39:18;10.17;;;3.03;;
2934;SDS011;2462;51.456;7.248;2022-12-26T13:41:48;5.43;;;2.80;;
2934;SDS011;2462;51.456;7.248;2022-12-26T13:44:37;4.20;;;3.20;;
2934;SDS011;2462;51.456;7.248;2022-12-26T13:47:03;3.30;;;2.80;;
2934;SDS011;2462;51.456;7.248;2022-12-26T13:49:36;9.40;;;3.10;;
2934;SDS011;2462;51.456;7.248;2022-12-26T14:00:06;6.90;;;3.60;;
2934;SDS011;2462;51.456;7.248;2022-12-26T14:08:36;7.57;;;4.93;;
2934;SDS011;2462;51.456;7.248;2022-12-26T14:14:28;9.77;;;4.43;;
2934;SDS011;2462;51.456;7.248;2022-12-26T14:17:13;9.73;;;4.90;;
2934;SDS011;2462;51.456;7.248;2022-12-26T14:33:49;7.67;;;4.10;;
2934;SDS011;2462;51.456;7.248;2022-12-26T14:36:34;7.17;;;3.70;;
2934;SDS011;2462;51.456;7.248;2022-12-26T14:42:09;6.57;;;4.30;;
2934;SDS011;2462;51.456;7.248;2022-12-26T14:44:54;6.63;;;3.83;;
2934;SDS011;2462;51.456;7.248;2022-12-26T14:47:34;8.03;;;3.50;;
2934;SDS011;2462;51.456;7.248;2022-12-26T14:55:48;5.23;;;3.70;;
2934;SDS011;2462;51.456;7.248;2022-12-26T15:26:08;5.37;;;3.77;;
2934;SDS011;2462;51.456;7.248;2022-12-26T15:37:11;6.03;;;3.47;;
2934;SDS011;2462;51.456;7.248;2022-12-26T15:50:55;9.50;;;4.50;;
2934;SDS011;2462;51.456;7.248;2022-12-26T15:56:14;7.70;;;3.17;;
2934;SDS011;2462;51.456;7.248;2022-12-26T16:01:47;5.20;;;3.83;;
2934;SDS011;2462;51.456;7.248;2022-12-26T16:04:28;6.87;;;4.63;;
2934;SDS011;2462;51.456;7.248;2022-12-26T16:07:06;7.07;;;4.33;;
2934;SDS011;2462;51.456;7.248;2022-12-26T16:09:40;8.53;;;3.50;;
2934;SDS011;2462;51.456;7.248;2022-12-26T16:12:17;5.80;;;2.90;;
2934;SDS011;2462;51.456;7.248;2022-12-26T16:14:44;8.63;;;2.60;;
2934;SDS011;2462;51.456;7.248;2022-12-26T16:19:39;7.10;;;2.50;;
2934;SDS011;2462;51.456;7.248;2022-12-26T16:22:06;5.97;;;2.90;;
2934;SDS011;2462;51.456;7.248;2022-12-26T16:24:55;4.50;;;2.87;;
2934;SDS011;2462;51.456;7.248;2022-12-26T16:27:21;5.30;;;3.10;;
2934;SDS011;2462;51.456;7.248;2022-12-26T16:29:49;10.47;;;3.87;;
2934;SDS011;2462;51.456;7.248;2022-12-26T16:32:19;6.97;;;3.13;;
2934;SDS011;2462;51.456;7.248;2022-12-26T16:34:48;6.90;;;3.60;;
2934;SDS011;2462;51.456;7.248;2022-12-26T16:37:18;9.43;;;2.80;;
2934;SDS011;2462;51.456;7.248;2022-12-26T16:42:32;4.17;;;3.77;;
2934;SDS011;2462;51.456;7.248;2022-12-26T16:44:58;9.53;;;3.77;;
2934;SDS011;2462;51.456;7.248;2022-12-26T16:47:24;6.40;;;3.13;;
2934;SDS011;2462;51.456;7.248;2022-12-26T16:49:52;5.77;;;3.13;;
2934;SDS011;2462;51.456;7.248;2022-12-26T16:57:46;10.70;;;4.17;;
2934;SDS011;2462;51.456;7.248;2022-12-26T17:00:17;9.83;;;4.83;;
2934;SDS011;2462;51.456;7.248;2022-12-26T17:02:45;6.10;;;4.17;;
2934;SDS011;2462;51.456;7.248;2022-12-26T17:05:20;3.67;;;2.90;;
2934;SDS011;2462;51.456;7.248;2022-12-26T17:07:49;5.47;;;3.70;;
2934;SDS011;2462;51.456;7.248;2022-12-26T17:10:18;7.40;;;4.60;;
2934;SDS011;2462;51.456;7.248;2022-12-26T17:12:49;6.40;;;3.50;;
2934;SDS011;2462;51.456;7.248;2022-12-26T17:15:23;9.90;;;4.20;;
2934;SDS011;2462;51.456;7.248;2022-12-26T17:17:54;5.30;;;4.13;;
2934;SDS011;2462;51.456;7.248;2022-12-26T17:22:49;7.70;;;4.03;;
2934;SDS011;2462;51.456;7.248;2022-12-26T17:25:20;7.53;;;3.40;;
2934;SDS011;2462;51.456;7.248;2022-12-26T17:33:07;26.53;;;16.00;;
2934;SDS011;2462;51.456;7.248;2022-12-26T17:35:40;20.80;;;11.67;;
2934;SDS011;2462;51.456;7.248;2022-12-26T17:38:12;11.30;;;5.83;;
2934;SDS011;2462;51.456;7.248;2022-12-26T17:40:43;12.67;;;7.23;;
2934;SDS011;2462;51.456;7.248;2022-12-26T17:45:37;8.70;;;5.33;;
2934;SDS011;2462;51.456;7.248;2022-12-26T17:48:04;9.67;;;4.27;;
2934;SDS011;2462;51.456;7.248;2022-12-26T17:50:32;6.43;;;4.67;;
2934;SDS011;2462;51.456;7.248;2022-12-26T17:55:55;8.80;;;5.80;;
2934;SDS011;2462;51.456;7.248;2022-12-26T17:58:27;12.37;;;5.63;;
2934;SDS011;2462;51.456;7.248;2022-12-26T18:00:54;11.40;;;4.13;;
2934;SDS011;2462;51.456;7.248;2022-12-26T18:03:20;7.80;;;4.30;;
2934;SDS011;2462;51.456;7.248;2022-12-26T18:05:46;8.07;;;4.07;;
2934;SDS011;2462;51.456;7.248;2022-12-26T18:08:20;12.13;;;4.97;;
2934;SDS011;2462;51.456;7.248;2022-12-26T18:10:54;13.73;;;3.80;;
2934;SDS011;2462;51.456;7.248;2022-12-26T18:13:21;6.37;;;3.80;;
2934;SDS011;2462;51.456;7.248;2022-12-26T18:15:47;10.17;;;4.03;;
2934;SDS011;2462;51.456;7.248;2022-12-26T18:18:21;5.93;;;3.50;;
2934;SDS011;2462;51.456;7.248;2022-12-26T18:20:47;7.43;;;3.80;;
2934;SDS011;2462;51.456;7.248;2022-12-26T18:23:13;11.03;;;3.70;;
2934;SDS011;2462;51.456;7.248;2022-12-26T18:25:38;4.93;;;2.90;;
2934;SDS011;2462;51.456;7.248;2022-12-26T18:28:04;3.90;;;3.00;;
2934;SDS011;2462;51.456;7.248;2022-12-26T18:30:29;6.93;;;3.00;;
2934;SDS011;2462;51.456;7.248;2022-12-26T18:32:55;8.33;;;3.20;;
2934;SDS011;2462;51.456;7.248;2022-12-26T18:35:20;5.90;;;2.70;;
2934;SDS011;2462;51.456;7.248;2022-12-26T18:37:47;4.53;;;2.70;;
2934;SDS011;2462;51.456;7.248;2022-12-26T18:40:32;5.77;;;2.77;;
2934;SDS011;2462;51.456;7.248;2022-12-26T18:43:02;6.40;;;2.97;;
2934;SDS011;2462;51.456;7.248;2022-12-26T18:45:30;5.13;;;3.33;;
2934;SDS011;2462;51.456;7.248;2022-12-26T18:47:56;3.30;;;2.67;;
2934;SDS011;2462;51.456;7.248;2022-12-26T18:50:22;3.80;;;3.30;;
2934;SDS011;2462;51.456;7.248;2022-12-26T18:52:48;7.53;;;3.50;;
2934;SDS011;2462;51.456;7.248;2022-12-26T18:55:14;14.83;;;3.73;;
2934;SDS011;2462;51.456;7.248;2022-12-26T18:57:40;6.50;;;2.87;;
2934;SDS011;2462;51.456;7.248;2022-12-26T19:00:06;9.30;;;3.30;;
2934;SDS011;2462;51.456;7.248;2022-12-26T19:02:33;6.43;;;3.03;;
2934;SDS011;2462;51.456;7.248;2022-12-26T19:04:59;3.50;;;2.57;;
2934;SDS011;2462;51.456;7.248;2022-12-26T19:07:24;5.60;;;3.93;;
2934;SDS011;2462;51.456;7.248;2022-12-26T19:09:51;6.50;;;3.40;;
2934;SDS011;2462;51.456;7.248;2022-12-26T19:12:22;9.70;;;3.27;;
2934;SDS011;2462;51.456;7.248;2022-12-26T19:14:48;6.80;;;3.23;;
2934;SDS011;2462;51.456;7.248;2022-12-26T19:17:14;4.07;;;2.97;;
2934;SDS011;2462;51.456;7.248;2022-12-26T19:19:40;6.63;;;3.83;;
2934;SDS011;2462;51.456;7.248;2022-12-26T19:22:06;3.77;;;2.50;;
2934;SDS011;2462;51.456;7.248;2022-12-26T19:24:32;5.00;;;2.87;;
2934;SDS011;2462;51.456;7.248;2022-12-26T19:26:58;5.53;;;2.23;;
2934;SDS011;2462;51.456;7.248;2022-12-26T19:29:24;6.60;;;3.23;;
2934;SDS011;2462;51.456;7.248;2022-12-26T19:31:50;6.07;;;3.03;;
2934;SDS011;2462;51.456;7.248;2022-12-26T19:34:15;7.63;;;2.87;;
2934;SDS011;2462;51.456;7.248;2022-12-26T19:36:41;4.20;;;3.00;;